首页
METAR-TAF:

METAR-TAF

机场 :

Gogebic-Iron County Airport

Ironwood, 密歇根州, 美国

纬度: 46-32N, 经度: 090-08W, 海拔: 375米

当前天气观测

该预报发布于17分钟前的20:56 UTC
风速8节,风向西转西北
温度 -6°C
湿度 86%
气压 1008 hPa
能見度: 1.6公里
阴天层高于1100英尺
小雪, 轻雾

METAR: KIWD 142056Z AUTO 30008KT 1SM -SN BR OVC011 M06/M08 A2976 RMK AO2 CIG 007V013 SLP098 P0001 60001 T10611078 53010 FZRANO RVRNO

时间: 16:13 (21:13 UTC)

预报

该预报发布于3小时和41分钟前的17:32 UTC
预报有效从14日的 18点(UTC)到 15日的 18点(UTC)
风速10节,风向西北,有时为18节阵风
能見度: 2.4公里
阴天层高于1000英尺
小阵雪
短暂存在
从 14日的 18点(UTC)到 14日的 22点(UTC)
能見度: 2.8公里
阴天层高于600英尺
小阵雪
从 14日的 2200点(UTC)
风速10节,风向西北
能見度: 2.4公里
阴天层高于1200英尺
小阵雪
从 15日的 0400点(UTC)
风速8节,风向西北
能見度: 1.6公里
阴天层高于1400英尺
小阵雪
从 15日的 0600点(UTC)
风速7节,风向西转西北
能見度: 1.6公里
阴天层高于1200英尺
小阵雪
从 15日的 1600点(UTC)
风速6节,风向西转西南
能見度: 10公里
散云层高于2000英尺

TAF: KIWD 141732Z 1418/1518 31010G18KT 1 1/2SM -SHSN OVC010 TEMPO 1418/1422 3/4SM -SHSN OVC006 FM142200 32010KT 1 1/2SM -SHSN OVC012 FM150400 31008KT 2SM -SHSN OVC014 FM150600 29007KT 3SM -SHSN OVC012 FM151600 25006KT P6SM SCT020

超过4000个机场的气象观测和天气预报(METAR&TAF报告)。

可查询的气象台以黄色和红色小点在地图上表示。

将鼠标移到小点上方,可查看气象台名称。

然后点击查看天气观测和预报。

如需切换地图:点击带黑十字的绿色按钮放大地图;点击带横线的绿色按钮缩小地图;或者点击绿色箭头查看邻近地区的地图。


METAR-TAF: